createdAt,value
2023-04-04T00:00:27.139Z,103180.50
2023-04-04T00:02:53.685Z,103183.28
2023-04-04T00:05:20.271Z,103176.28
2023-04-04T00:07:47.652Z,103171.03
2023-04-04T00:10:14.596Z,103172.81
2023-04-04T00:12:41.922Z,103176.56
2023-04-04T00:15:09.034Z,103169.50
2023-04-04T00:17:35.653Z,103162.38
2023-04-04T00:20:04.336Z,103161.53
2023-04-04T00:22:31.473Z,103156.34
2023-04-04T00:32:39.458Z,103146.13
2023-04-04T00:35:06.626Z,103149.84
2023-04-04T00:37:33.946Z,103152.63
2023-04-04T00:40:00.601Z,103145.50
2023-04-04T00:42:27.795Z,103142.06
2023-04-04T00:44:54.587Z,103137.69
2023-04-04T00:47:25.894Z,103144.94
2023-04-04T00:49:52.839Z,103153.84
2023-04-04T00:52:19.478Z,103150.41
2023-04-04T00:54:46.181Z,103151.44
2023-04-04T00:57:12.771Z,103143.50
2023-04-04T00:59:39.658Z,103142.63
2023-04-04T01:02:06.710Z,103143.56
2023-04-04T01:04:33.252Z,103142.81
2023-04-04T01:07:01.136Z,103141.97
2023-04-04T01:09:28.387Z,103144.72
2023-04-04T01:11:55.957Z,103144.72
2023-04-04T01:14:22.686Z,103148.34
2023-04-04T01:16:52.543Z,103143.97
2023-04-04T01:19:36.961Z,103141.47
2023-04-04T01:22:06.059Z,103139.63
2023-04-04T01:24:36.531Z,103137.91
2023-04-04T01:27:03.184Z,103135.31
2023-04-04T01:29:29.684Z,103133.59
2023-04-04T01:32:16.327Z,103145.38
2023-04-04T01:35:07.498Z,103140.94
2023-04-04T01:37:48.103Z,103148.13
2023-04-04T01:40:21.882Z,103158.00
2023-04-04T01:42:49.168Z,103150.13
2023-04-04T01:45:15.777Z,103147.38
2023-04-04T01:47:43.185Z,103150.13
2023-04-04T01:50:11.636Z,103159.22
2023-04-04T01:52:38.494Z,103151.25
2023-04-04T01:55:05.378Z,103148.69
2023-04-04T01:57:31.922Z,103144.28
2023-04-04T01:59:58.450Z,103141.59
2023-04-04T02:02:25.061Z,103140.81
2023-04-04T02:04:52.261Z,103139.09
2023-04-04T02:07:19.447Z,103134.72
2023-04-04T02:09:46.248Z,103139.28
2023-04-04T02:12:12.769Z,103145.50
2023-04-04T02:14:39.816Z,103148.28
2023-04-04T02:17:06.977Z,103148.28
2023-04-04T02:19:33.636Z,103145.66
2023-04-04T02:22:00.137Z,103153.81
2023-04-04T02:24:26.826Z,103146.72
2023-04-04T02:26:53.379Z,103152.09
2023-04-04T02:29:19.941Z,103147.75
2023-04-04T02:31:46.522Z,103152.25
2023-04-04T02:34:13.067Z,103146.16
2023-04-04T02:36:39.570Z,103143.53
2023-04-04T02:39:06.129Z,103146.22
2023-04-04T02:41:32.677Z,103141.91
2023-04-04T02:43:59.191Z,103139.25
2023-04-04T02:46:26.028Z,103138.44
2023-04-04T02:48:52.688Z,103133.94
2023-04-04T02:51:19.320Z,103126.03
2023-04-04T02:53:46.885Z,103129.66
2023-04-04T02:56:13.366Z,103122.56
2023-04-04T02:58:41.509Z,103118.16
2023-04-04T03:01:08.777Z,103104.88
2023-04-04T03:03:35.601Z,103118.25
2023-04-04T03:06:02.210Z,103115.63
2023-04-04T03:08:28.710Z,103113.91
2023-04-04T03:10:55.251Z,103116.59
2023-04-04T03:13:22.080Z,103122.91
2023-04-04T03:15:49.641Z,103126.53
2023-04-04T03:18:16.496Z,103123.91
2023-04-04T03:20:43.026Z,103115.03
2023-04-04T03:23:09.568Z,103116.00
2023-04-04T03:25:36.146Z,103117.88
2023-04-04T03:28:12.622Z,103121.53
2023-04-04T03:30:40.029Z,103115.31
2023-04-04T03:33:09.971Z,103118.06
2023-04-04T03:35:40.744Z,103115.47
2023-04-04T03:38:08.526Z,103118.06
2023-04-04T03:40:35.479Z,103112.69
2023-04-04T03:43:05.003Z,103116.59
2023-04-04T03:45:34.353Z,103121.34
2023-04-04T03:48:00.950Z,103111.06
2023-04-04T03:50:27.547Z,103118.53
2023-04-04T03:52:54.086Z,103111.75
2023-04-04T03:55:20.612Z,103121.91
2023-04-04T03:57:47.720Z,103116.09
2023-04-04T04:00:14.524Z,103110.28
2023-04-04T04:02:41.228Z,103119.78
2023-04-04T04:05:08.054Z,103121.31
2023-04-04T04:07:34.725Z,103113.94
2023-04-04T04:10:01.233Z,103105.78
2023-04-04T04:12:27.759Z,103112.81
2023-04-04T04:18:47.731Z,103114.41
2023-04-04T04:21:14.745Z,103116.22
2023-04-04T04:23:41.453Z,103117.09
2023-04-04T04:26:07.954Z,103109.03
2023-04-04T04:28:34.598Z,103107.44
2023-04-04T04:31:06.343Z,103110.13
2023-04-04T04:33:33.138Z,103118.22
2023-04-04T04:36:02.140Z,103114.81
2023-04-04T04:38:29.292Z,103113.25
2023-04-04T04:40:56.885Z,103120.81
2023-04-04T04:43:24.157Z,103114.09
2023-04-04T04:45:50.877Z,103123.44
2023-04-04T04:48:17.963Z,103125.72
2023-04-04T04:50:48.365Z,103127.16
2023-04-04T04:53:14.998Z,103129.41
2023-04-04T04:55:43.129Z,103126.44
2023-04-04T04:58:10.821Z,103129.56
2023-04-04T05:00:38.433Z,103125.47
2023-04-04T05:03:08.208Z,103133.19
2023-04-04T05:05:35.230Z,103138.13
2023-04-04T05:08:04.948Z,103138.44
2023-04-04T05:10:31.629Z,103137.00
2023-04-04T05:12:58.189Z,103133.63
2023-04-04T05:15:31.540Z,103131.22
2023-04-04T05:17:58.475Z,103133.91
2023-04-04T05:20:25.295Z,103125.88
2023-04-04T05:22:51.872Z,103126.63
2023-04-04T05:25:18.735Z,103138.28
2023-04-04T05:27:48.826Z,103133.91
2023-04-04T05:30:16.944Z,103131.13
2023-04-04T05:32:46.751Z,103134.66
2023-04-04T05:35:13.471Z,103143.38
2023-04-04T05:37:40.725Z,103137.97
2023-04-04T05:40:08.273Z,103139.03
2023-04-04T05:42:34.775Z,103140.00
2023-04-04T05:45:01.566Z,103139.13
2023-04-04T05:47:28.097Z,103144.47
2023-04-04T05:49:54.657Z,103139.13
2023-04-04T05:52:21.293Z,103138.31
2023-04-04T05:54:48.189Z,103139.28
2023-04-04T05:57:14.672Z,103130.78
2023-04-04T05:59:41.166Z,103132.13
2023-04-04T06:02:08.328Z,103140.75
2023-04-04T06:04:34.917Z,103126.31
2023-04-04T06:07:01.681Z,103127.91
2023-04-04T06:09:28.231Z,103137.72
2023-04-04T06:11:54.736Z,103132.34
2023-04-04T06:14:21.411Z,103138.63
2023-04-04T06:16:48.019Z,103144.13
2023-04-04T06:19:14.546Z,103134.34
2023-04-04T06:21:41.165Z,103129.06
2023-04-04T06:24:07.768Z,103131.66
2023-04-04T06:26:34.550Z,103134.34
2023-04-04T06:29:01.033Z,103125.22
2023-04-04T06:31:27.691Z,103116.16
2023-04-04T06:33:54.287Z,103115.97
2023-04-04T06:36:21.433Z,103122.00
2023-04-04T06:38:48.031Z,103127.19
2023-04-04T06:41:14.603Z,103134.06
2023-04-04T06:43:41.589Z,103135.81
2023-04-04T06:46:08.142Z,103138.28
2023-04-04T06:48:34.619Z,103152.38
2023-04-04T06:51:01.364Z,103147.78
2023-04-04T06:53:28.005Z,103149.41
2023-04-04T06:55:54.598Z,103148.28
2023-04-04T06:58:21.270Z,103144.63
2023-04-04T07:00:47.876Z,103150.75
2023-04-04T07:03:14.496Z,103151.53
2023-04-04T07:05:41.649Z,103154.22
2023-04-04T07:08:08.878Z,103155.94
2023-04-04T07:10:35.893Z,103151.59
2023-04-04T07:13:02.464Z,103155.34
2023-04-04T07:15:29.078Z,103156.31
2023-04-04T07:17:55.695Z,103147.31
2023-04-04T07:20:22.397Z,103157.25
2023-04-04T07:22:49.327Z,103156.50
2023-04-04T07:25:16.030Z,103150.28
2023-04-04T07:27:42.818Z,103155.72
2023-04-04T07:30:10.045Z,103161.22
2023-04-04T07:32:38.249Z,103156.88
2023-04-04T07:35:08.133Z,103152.59
2023-04-04T07:37:37.212Z,103153.44
2023-04-04T07:40:05.810Z,103141.94
2023-04-04T07:42:32.304Z,103146.56
2023-04-04T07:44:58.831Z,103150.09
2023-04-04T07:47:26.393Z,103141.25
2023-04-04T07:49:52.968Z,103143.09
2023-04-04T07:52:19.494Z,103148.44
2023-04-04T07:54:47.752Z,103144.91
2023-04-04T07:57:14.417Z,103143.09
2023-04-04T07:59:41.141Z,103139.44
2023-04-04T08:02:08.185Z,103142.03
2023-04-04T08:04:34.728Z,103141.94
2023-04-04T08:07:01.339Z,103142.78
2023-04-04T08:09:33.969Z,103141.75
2023-04-04T08:12:02.142Z,103138.03
2023-04-04T08:14:29.073Z,103138.66
2023-04-04T08:16:55.624Z,103141.16
2023-04-04T08:19:22.529Z,103139.16
2023-04-04T08:21:50.022Z,103137.13
2023-04-04T08:24:16.614Z,103139.63
2023-04-04T08:26:45.265Z,103133.09
2023-04-04T08:29:15.786Z,103134.63
2023-04-04T08:31:42.565Z,103127.25
2023-04-04T08:34:09.134Z,103123.41
2023-04-04T08:36:35.841Z,103119.66
2023-04-04T08:39:03.760Z,103119.25
2023-04-04T08:41:32.745Z,103119.94
2023-04-04T08:44:02.816Z,103125.00
2023-04-04T08:46:30.551Z,103122.13
2023-04-04T08:48:59.448Z,103123.63
2023-04-04T08:51:26.706Z,103119.78
2023-04-04T08:53:55.805Z,103119.56
2023-04-04T08:56:23.806Z,103117.53
2023-04-04T08:58:50.576Z,103125.28
2023-04-04T09:01:17.424Z,103122.41
2023-04-04T09:03:45.060Z,103122.09
2023-04-04T09:06:12.626Z,103122.78
2023-04-04T09:08:40.055Z,103118.06
2023-04-04T09:11:07.018Z,103123.13
2023-04-04T09:13:33.583Z,103121.97
2023-04-04T09:16:00.642Z,103122.53
2023-04-04T09:18:27.317Z,103128.44
2023-04-04T09:20:53.983Z,103130.94
2023-04-04T09:23:21.322Z,103129.66
2023-04-04T09:26:03.109Z,103136.53
2023-04-04T09:28:31.773Z,103132.56
2023-04-04T09:31:01.074Z,103134.06
2023-04-04T09:33:27.822Z,103128.41
2023-04-04T09:36:10.298Z,103136.88
2023-04-04T09:38:40.651Z,103124.00
2023-04-04T09:41:11.060Z,103120.00
2023-04-04T09:43:39.709Z,103112.38
2023-04-04T09:46:07.776Z,103108.25
2023-04-04T09:48:36.829Z,103110.53
2023-04-04T09:51:07.869Z,103105.50
2023-04-04T09:53:36.498Z,103104.19
2023-04-04T09:56:03.457Z,103110.00
2023-04-04T09:58:32.596Z,103101.47
2023-04-04T10:01:04.240Z,103109.13
2023-04-04T10:03:31.186Z,103093.41
2023-04-04T10:06:06.748Z,103102.84
2023-04-04T10:08:35.080Z,103098.75
2023-04-04T10:11:11.530Z,103088.47
2023-04-04T10:13:44.502Z,103093.44
2023-04-04T10:16:11.882Z,103091.97
2023-04-04T10:18:39.646Z,103100.59
2023-04-04T10:23:40.381Z,103097.09
2023-04-04T10:26:07.557Z,103085.13
2023-04-04T10:28:34.415Z,103086.53
2023-04-04T10:31:24.341Z,103083.47
2023-04-04T10:34:09.545Z,103080.31
2023-04-04T10:36:49.280Z,103079.09
2023-04-04T10:39:24.069Z,103079.63
2023-04-04T10:41:52.708Z,103072.03
2023-04-04T10:44:33.498Z,103077.22
2023-04-04T10:47:09.038Z,103079.41
2023-04-04T10:49:36.747Z,103069.25
2023-04-04T10:52:03.923Z,103064.34
2023-04-04T10:54:30.587Z,103059.59
2023-04-04T10:57:01.252Z,103056.66
2023-04-04T10:59:28.180Z,103051.88
2023-04-04T11:02:00.413Z,103054.22
2023-04-04T11:04:35.090Z,103054.00
2023-04-04T11:07:11.515Z,103051.06
2023-04-04T11:10:14.138Z,103051.78
2023-04-04T11:12:45.803Z,103051.31
2023-04-04T11:15:14.396Z,103053.03
2023-04-04T11:17:46.897Z,103051.03
2023-04-04T11:20:19.767Z,103042.84
2023-04-04T11:22:49.232Z,103045.44
2023-04-04T11:25:42.377Z,103046.44
2023-04-04T11:28:14.764Z,103032.81
2023-04-04T11:30:50.241Z,103019.31
2023-04-04T11:33:27.753Z,103024.72
2023-04-04T11:35:58.908Z,103020.19
2023-04-04T11:38:27.110Z,103016.53
2023-04-04T11:40:54.858Z,103016.53
2023-04-04T11:43:21.459Z,103017.38
2023-04-04T11:45:48.847Z,103019.22
2023-04-04T11:48:17.291Z,103021.91
2023-04-04T11:50:49.554Z,103013.69
2023-04-04T11:53:17.369Z,103010.00
2023-04-04T11:55:47.466Z,103007.06
2023-04-04T11:58:16.098Z,103006.94
2023-04-04T12:00:44.439Z,103003.13
2023-04-04T12:03:12.936Z,103001.91
2023-04-04T12:05:42.216Z,103003.13
2023-04-04T12:08:10.908Z,102997.22
2023-04-04T12:10:40.533Z,102991.59
2023-04-04T12:13:08.700Z,102991.09
2023-04-04T12:15:37.090Z,102986.16
2023-04-04T12:18:08.174Z,102981.25
2023-04-04T12:20:38.527Z,102978.03
2023-04-04T12:23:05.088Z,102973.13
2023-04-04T12:25:34.133Z,102970.03
2023-04-04T12:28:03.958Z,102966.22
2023-04-04T12:30:31.083Z,102961.44
2023-04-04T12:32:58.098Z,102959.44
2023-04-04T12:35:24.819Z,102950.47
2023-04-04T12:38:07.178Z,102958.44
2023-04-04T12:40:37.458Z,102955.50
2023-04-04T12:43:08.878Z,102967.16
2023-04-04T12:45:39.695Z,102958.09
2023-04-04T12:48:12.177Z,102949.00
2023-04-04T12:50:57.941Z,102953.66
2023-04-04T12:53:29.555Z,102945.44
2023-04-04T12:56:02.340Z,102942.00
2023-04-04T12:58:29.373Z,102935.88
2023-04-04T13:01:00.229Z,102931.44
2023-04-04T13:03:28.662Z,102928.88
2023-04-04T13:05:55.380Z,102925.47
2023-04-04T13:08:22.089Z,102923.72
2023-04-04T13:11:04.766Z,102917.72
2023-04-04T13:13:38.757Z,102925.97
2023-04-04T13:16:09.651Z,102913.56
2023-04-04T13:18:38.706Z,102918.25
2023-04-04T13:21:09.568Z,102916.56
2023-04-04T13:23:39.388Z,102912.25
2023-04-04T13:26:08.167Z,102901.72
2023-04-04T13:28:35.416Z,102901.00
2023-04-04T13:31:03.953Z,102897.56
2023-04-04T13:33:30.961Z,102889.44
2023-04-04T13:36:00.510Z,102886.91
2023-04-04T13:38:28.665Z,102891.44
2023-04-04T13:40:57.465Z,102885.19
2023-04-04T13:43:24.186Z,102883.44
2023-04-04T13:45:50.736Z,102877.94
2023-04-04T13:48:17.455Z,102882.34
2023-04-04T13:50:47.440Z,102872.41
2023-04-04T13:53:13.974Z,102866.00
2023-04-04T13:55:52.094Z,102872.53
2023-04-04T13:58:27.036Z,102861.00
2023-04-04T14:00:53.661Z,102860.28
2023-04-04T14:03:21.513Z,102864.09
2023-04-04T14:05:48.094Z,102862.50
2023-04-04T14:08:15.051Z,102853.69
2023-04-04T14:10:41.731Z,102853.09
2023-04-04T14:13:08.250Z,102853.22
2023-04-04T14:15:34.776Z,102848.94
2023-04-04T14:18:01.565Z,102849.06
2023-04-04T14:20:28.147Z,102851.88
2023-04-04T14:22:54.855Z,102841.22
2023-04-04T14:25:21.449Z,102836.81
2023-04-04T14:27:48.022Z,102841.47
2023-04-04T14:30:15.027Z,102834.38
2023-04-04T14:32:41.622Z,102845.28
2023-04-04T14:35:09.019Z,102833.03
2023-04-04T14:37:35.819Z,102835.50
2023-04-04T14:40:02.443Z,102831.84
2023-04-04T14:42:28.969Z,102826.22
2023-04-04T14:44:55.498Z,102826.72
2023-04-04T14:47:22.060Z,102828.94
2023-04-04T14:49:48.618Z,102820.25
2023-04-04T14:52:15.134Z,102823.19
2023-04-04T14:54:41.687Z,102823.09
2023-04-04T14:57:08.230Z,102817.47
2023-04-04T14:59:34.867Z,102815.13
2023-04-04T15:02:01.412Z,102813.53
2023-04-04T15:04:28.058Z,102819.06
2023-04-04T15:06:56.641Z,102805.69
2023-04-04T15:09:23.255Z,102806.69
2023-04-04T15:11:50.403Z,102806.56
2023-04-04T15:14:16.951Z,102804.59
2023-04-04T15:16:43.532Z,102800.91
2023-04-04T15:19:11.349Z,102798.97
2023-04-04T15:21:37.881Z,102802.66
2023-04-04T15:24:04.662Z,102797.25
2023-04-04T15:26:31.307Z,102801.66
2023-04-04T15:28:57.799Z,102797.84
2023-04-04T15:31:26.262Z,102790.66
2023-04-04T15:33:55.311Z,102793.06
2023-04-04T15:36:23.518Z,102786.72
2023-04-04T15:38:50.165Z,102787.44
2023-04-04T15:41:16.715Z,102785.47
2023-04-04T15:43:43.302Z,102786.19
2023-04-04T15:46:09.878Z,102788.41
2023-04-04T15:48:36.465Z,102783.88
2023-04-04T15:51:04.334Z,102792.66
2023-04-04T15:53:31.442Z,102794.41
2023-04-04T15:55:58.956Z,102792.28
2023-04-04T15:58:26.460Z,102778.94
2023-04-04T16:00:53.567Z,102773.56
2023-04-04T16:03:20.552Z,102777.25
2023-04-04T16:05:48.150Z,102771.97
2023-04-04T16:08:14.946Z,102768.53
2023-04-04T16:10:43.969Z,102760.00
2023-04-04T16:13:11.242Z,102754.84
2023-04-04T16:15:38.298Z,102765.00
2023-04-04T16:18:05.227Z,102761.56
2023-04-04T16:20:31.929Z,102759.16
2023-04-04T16:22:58.470Z,102766.50
2023-04-04T16:25:25.129Z,102759.53
2023-04-04T16:27:51.635Z,102762.56
2023-04-04T16:30:18.360Z,102761.00
2023-04-04T16:32:47.072Z,102759.41
2023-04-04T16:35:14.083Z,102760.25
2023-04-04T16:37:40.792Z,102760.25
2023-04-04T16:40:08.338Z,102758.31
2023-04-04T16:42:35.106Z,102752.91
2023-04-04T16:45:01.714Z,102745.81
2023-04-04T16:47:28.477Z,102746.69
2023-04-04T16:49:55.367Z,102745.94
2023-04-04T16:52:22.006Z,102752.31
2023-04-04T16:54:48.625Z,102748.00
2023-04-04T16:57:15.178Z,102750.97
2023-04-04T16:59:41.842Z,102758.31
2023-04-04T17:02:08.579Z,102750.38
2023-04-04T17:04:35.515Z,102743.16
2023-04-04T17:07:02.923Z,102742.41
2023-04-04T17:09:29.525Z,102743.25
2023-04-04T17:11:57.268Z,102750.25
2023-04-04T17:14:25.652Z,102741.78
2023-04-04T17:16:53.339Z,102741.78
2023-04-04T17:19:20.090Z,102742.38
2023-04-04T17:21:47.057Z,102737.47
2023-04-04T17:24:14.314Z,102729.13
2023-04-04T17:26:40.965Z,102728.03
2023-04-04T17:29:07.523Z,102733.06
2023-04-04T17:31:34.108Z,102735.59
2023-04-04T17:34:00.639Z,102731.69
2023-04-04T17:36:27.620Z,102728.88
2023-04-04T17:38:54.214Z,102732.28
2023-04-04T17:41:20.800Z,102725.91
2023-04-04T17:43:47.418Z,102740.38
2023-04-04T17:46:16.577Z,102727.03
2023-04-04T17:48:43.440Z,102735.22
2023-04-04T17:51:10.891Z,102727.53
2023-04-04T17:53:37.468Z,102730.59
2023-04-04T17:56:04.189Z,102732.59
2023-04-04T17:58:30.699Z,102731.13
2023-04-04T18:00:57.912Z,102727.81
2023-04-04T18:03:24.528Z,102730.75
2023-04-04T18:05:52.763Z,102728.19
2023-04-04T18:08:19.400Z,102733.69
2023-04-04T18:10:45.946Z,102728.31
2023-04-04T18:13:12.527Z,102726.75
2023-04-04T18:15:39.138Z,102734.91
2023-04-04T18:18:06.384Z,102725.28
2023-04-04T18:20:35.430Z,102729.78
2023-04-04T18:23:05.955Z,102731.63
2023-04-04T18:25:32.821Z,102730.06
2023-04-04T18:28:00.207Z,102734.56
2023-04-04T18:30:26.767Z,102727.47
2023-04-04T18:32:53.507Z,102743.75
2023-04-04T18:35:20.031Z,102734.94
2023-04-04T18:37:46.677Z,102731.38
2023-04-04T18:40:13.214Z,102734.94
2023-04-04T18:42:40.193Z,102735.78
2023-04-04T18:45:08.165Z,102745.59
2023-04-04T18:47:34.826Z,102742.16
2023-04-04T18:50:01.498Z,102738.63
2023-04-04T18:52:28.101Z,102744.97
2023-04-04T18:54:54.597Z,102749.25
2023-04-04T18:57:21.473Z,102743.88
2023-04-04T18:59:48.046Z,102751.94
2023-04-04T19:02:14.596Z,102754.78
2023-04-04T19:04:41.197Z,102753.88
2023-04-04T19:07:07.898Z,102761.88
2023-04-04T19:09:36.541Z,102766.50
2023-04-04T19:12:03.848Z,102764.66
2023-04-04T19:14:30.664Z,102767.34
2023-04-04T19:16:57.344Z,102754.88
2023-04-04T19:19:24.199Z,102769.19
2023-04-04T19:21:50.719Z,102771.03
2023-04-04T19:24:17.268Z,102772.00
2023-04-04T19:26:44.022Z,102770.28
2023-04-04T19:29:11.078Z,102768.44
2023-04-04T19:31:37.615Z,102764.19
2023-04-04T19:34:09.572Z,102766.03
2023-04-04T19:36:37.539Z,102762.44
2023-04-04T19:39:05.358Z,102756.09
2023-04-04T19:41:36.720Z,102765.88
2023-04-04T19:44:04.957Z,102759.66
2023-04-04T19:46:33.083Z,102756.97
2023-04-04T19:49:00.608Z,102755.34
2023-04-04T19:51:27.901Z,102750.22
2023-04-04T19:53:56.474Z,102746.03
2023-04-04T19:56:26.029Z,102740.94
2023-04-04T19:59:01.767Z,102739.19
2023-04-04T20:01:29.807Z,102742.88
2023-04-04T20:03:57.412Z,102729.63
2023-04-04T20:06:34.229Z,102735.41
2023-04-04T20:09:13.088Z,102736.63
2023-04-04T20:11:40.121Z,102740.31
2023-04-04T20:14:08.433Z,102731.47
2023-04-04T20:16:35.959Z,102733.59
2023-04-04T20:19:06.677Z,102728.44
2023-04-04T20:21:34.599Z,102727.94
2023-04-04T20:24:08.277Z,102727.19
2023-04-04T20:26:52.363Z,102727.56
2023-04-04T20:29:21.818Z,102730.47
2023-04-04T20:31:51.637Z,102722.41
2023-04-04T20:34:42.037Z,102722.16
2023-04-04T20:37:12.856Z,102727.66
2023-04-04T20:40:02.762Z,102722.75
2023-04-04T20:42:29.294Z,102726.41
2023-04-04T20:45:12.473Z,102723.09
2023-04-04T20:47:51.578Z,102723.47
2023-04-04T20:50:18.437Z,102722.63
2023-04-04T20:52:52.803Z,102722.97
2023-04-04T20:55:20.986Z,102726.63
2023-04-04T20:57:47.954Z,102726.94
2023-04-04T21:00:30.063Z,102725.47
2023-04-04T21:02:58.607Z,102722.91
2023-04-04T21:05:34.240Z,102716.91
2023-04-04T21:08:01.966Z,102718.84
2023-04-04T21:10:28.622Z,102716.41
2023-04-04T21:12:57.705Z,102712.09
2023-04-04T21:15:35.119Z,102713.19
2023-04-04T21:18:07.771Z,102708.91
2023-04-04T21:20:46.284Z,102702.78
2023-04-04T21:23:39.078Z,102705.72
2023-04-04T21:26:10.721Z,102705.72
2023-04-04T21:28:42.004Z,102706.91
2023-04-04T21:31:16.755Z,102695.44
2023-04-04T21:33:45.318Z,102699.09
2023-04-04T21:36:28.520Z,102702.88
2023-04-04T21:38:57.364Z,102685.25
2023-04-04T21:41:27.114Z,102696.13
2023-04-04T21:43:55.027Z,102694.53
2023-04-04T21:46:27.268Z,102685.81
2023-04-04T21:48:54.820Z,102685.97
2023-04-04T21:51:21.808Z,102692.41
2023-04-04T21:53:49.899Z,102694.38
2023-04-04T21:56:17.342Z,102693.63
2023-04-04T21:58:44.467Z,102692.03
2023-04-04T22:01:11.275Z,102690.28
2023-04-04T22:03:39.217Z,102692.25
2023-04-04T22:06:06.209Z,102685.25
2023-04-04T22:08:32.792Z,102689.03
2023-04-04T22:11:01.807Z,102680.13
2023-04-04T22:13:33.026Z,102682.06
2023-04-04T22:16:01.065Z,102685.84
2023-04-04T22:18:33.092Z,102685.97
2023-04-04T22:21:04.237Z,102673.59
2023-04-04T22:23:38.097Z,102684.47
2023-04-04T22:26:05.776Z,102686.31
2023-04-04T22:28:33.705Z,102678.47
2023-04-04T22:31:01.842Z,102680.41
2023-04-04T22:33:29.787Z,102678.69
2023-04-04T22:35:58.883Z,102675.91
2023-04-04T22:38:26.547Z,102670.63
2023-04-04T22:40:53.895Z,102676.13
2023-04-04T22:43:21.314Z,102686.00
2023-04-04T22:45:48.158Z,102684.25
2023-04-04T22:48:15.314Z,102686.06
2023-04-04T22:50:42.376Z,102679.84
2023-04-04T22:53:12.927Z,102671.91
2023-04-04T22:55:40.376Z,102674.69
2023-04-04T22:58:07.607Z,102676.53
2023-04-04T23:00:35.126Z,102669.31
2023-04-04T23:03:02.266Z,102676.66
2023-04-04T23:05:29.271Z,102673.97
2023-04-04T23:08:01.329Z,102665.16
2023-04-04T23:10:27.928Z,102673.34
2023-04-04T23:12:54.491Z,102664.44
2023-04-04T23:15:21.038Z,102664.50
2023-04-04T23:17:47.802Z,102661.97
2023-04-04T23:20:14.522Z,102660.25
2023-04-04T23:22:41.612Z,102668.41
2023-04-04T23:25:08.561Z,102663.16
2023-04-04T23:27:35.383Z,102658.75
2023-04-04T23:30:03.511Z,102659.75
2023-04-04T23:32:31.680Z,102660.69
2023-04-04T23:34:58.504Z,102655.44
2023-04-04T23:37:25.154Z,102659.19
2023-04-04T23:39:51.702Z,102664.56
2023-04-04T23:42:18.286Z,102657.50
2023-04-04T23:44:45.618Z,102655.88
2023-04-04T23:47:12.386Z,102659.53
2023-04-04T23:49:38.962Z,102656.97
2023-04-04T23:52:06.155Z,102651.81
2023-04-04T23:54:32.850Z,102656.34
2023-04-04T23:56:59.422Z,102658.25
2023-04-04T23:59:26.972Z,102648.63
